createdAt,value
2022-10-10T07:17:58.844Z,22.93
2022-10-10T07:19:00.213Z,16.65
2022-10-10T07:20:01.559Z,8.75
2022-10-10T07:21:04.170Z,12.77
2022-10-10T07:22:05.764Z,6.25
2022-10-10T07:23:07.142Z,8.88
2022-10-10T07:24:08.479Z,11.38
2022-10-10T07:25:09.802Z,10.50
2022-10-10T07:26:13.873Z,6.68
2022-10-10T07:47:11.361Z,16.25
2022-10-10T07:48:12.857Z,34.05
2022-10-10T07:49:14.308Z,37.58
2022-10-10T07:50:15.878Z,45.75
2022-10-10T07:51:17.689Z,44.80
2022-10-10T07:52:21.998Z,53.08
2022-10-10T07:53:24.022Z,34.60
2022-10-10T07:54:25.409Z,38.58
2022-10-10T08:13:52.601Z,11.30
2022-10-10T08:14:54.261Z,9.75
2022-10-10T08:15:55.613Z,10.38
2022-10-10T08:16:56.944Z,14.98
2022-10-10T08:17:58.332Z,8.55
2022-10-10T08:18:59.888Z,10.88
2022-10-10T08:20:01.415Z,9.23
2022-10-10T08:21:08.068Z,8.70
2022-10-10T08:22:09.416Z,15.90
2022-10-10T08:23:10.837Z,12.60
2022-10-10T08:24:12.238Z,6.40
2022-10-10T08:25:17.814Z,6.47
2022-10-10T08:26:20.032Z,10.95
2022-10-10T08:27:21.729Z,5.60
2022-10-10T08:28:23.897Z,9.10
2022-10-10T08:29:25.272Z,8.63
2022-10-10T08:30:26.784Z,6.20
2022-10-10T08:31:31.271Z,7.13
2022-10-10T08:32:32.604Z,16.60
2022-10-10T08:33:34.047Z,3.60
2022-10-10T08:34:35.381Z,7.05
2022-10-10T08:35:40.058Z,8.90
2022-10-10T08:36:41.817Z,6.25
2022-10-10T08:37:43.164Z,4.45
2022-10-10T08:38:45.124Z,6.50
2022-10-10T08:39:46.515Z,5.25
2022-10-10T08:40:50.557Z,9.68
2022-10-10T08:42:00.449Z,5.68
2022-10-10T08:43:06.408Z,5.22
2022-10-10T08:44:22.219Z,5.32
2022-10-10T08:45:27.261Z,6.25
2022-10-10T08:46:48.598Z,7.80
2022-10-10T08:48:00.070Z,6.45
2022-10-10T08:49:14.096Z,3.92
2022-10-10T08:50:21.428Z,4.40
2022-10-10T08:51:32.105Z,4.30
2022-10-10T08:52:50.569Z,16.38
2022-10-10T08:59:03.992Z,7.78
2022-10-10T09:00:12.752Z,5.05
2022-10-10T09:01:19.486Z,7.93
2022-10-10T09:02:43.762Z,6.90
2022-10-10T09:03:55.992Z,5.15
2022-10-10T09:05:00.566Z,10.98
2022-10-10T09:06:39.309Z,11.23
2022-10-10T09:08:01.919Z,8.88
2022-10-10T09:09:21.643Z,9.88
2022-10-10T09:10:49.676Z,11.40
2022-10-10T09:17:06.264Z,4.38
2022-10-10T09:18:24.202Z,5.32
2022-10-10T09:19:37.729Z,8.50
2022-10-10T09:20:51.652Z,6.75
2022-10-10T09:21:57.051Z,4.30
2022-10-10T09:29:36.986Z,4.25
2022-10-10T09:30:46.013Z,6.88
2022-10-10T09:31:56.201Z,6.95
2022-10-10T09:33:06.652Z,10.25
2022-10-10T09:34:20.183Z,10.90
2022-10-10T09:35:30.448Z,4.85
2022-10-10T09:36:35.640Z,9.95
2022-10-10T09:37:47.193Z,5.78
2022-10-10T09:38:53.858Z,7.20
2022-10-10T09:40:06.494Z,9.65
2022-10-10T09:47:55.746Z,2.78
2022-10-10T09:48:57.669Z,4.00
2022-10-10T09:49:59.368Z,5.00
2022-10-10T09:51:03.732Z,10.68
2022-10-10T09:52:28.868Z,5.28
2022-10-10T09:53:30.217Z,8.27
2022-10-10T09:54:31.596Z,6.10
2022-10-10T09:55:38.305Z,6.10
2022-10-10T09:56:55.454Z,7.50
2022-10-10T09:58:04.280Z,6.43
2022-10-10T09:59:05.719Z,10.55
2022-10-10T10:00:19.506Z,4.00
2022-10-10T10:01:25.696Z,7.97
2022-10-10T10:02:28.194Z,6.07
2022-10-10T10:03:32.646Z,5.53
2022-10-10T10:04:34.069Z,6.95
2022-10-10T10:05:35.696Z,5.60
2022-10-10T10:06:38.253Z,12.20
2022-10-10T10:07:47.744Z,8.50
2022-10-10T10:08:52.752Z,9.60
2022-10-10T10:09:58.076Z,11.20
2022-10-10T10:11:00.794Z,5.15
2022-10-10T10:12:05.034Z,3.40
2022-10-10T10:13:13.842Z,10.38
2022-10-10T10:14:26.294Z,7.80
2022-10-10T10:15:34.077Z,4.15
2022-10-10T10:16:38.659Z,6.13
2022-10-10T10:17:40.022Z,3.85
2022-10-10T10:18:47.522Z,9.65
2022-10-10T10:19:49.075Z,4.88
2022-10-10T10:21:08.280Z,6.35
2022-10-10T10:34:05.646Z,7.38
2022-10-10T10:35:32.064Z,5.20
2022-10-10T10:37:05.781Z,5.55
2022-10-10T10:38:44.817Z,11.45
2022-10-10T10:40:15.282Z,6.93
2022-10-10T10:41:38.229Z,5.53
2022-10-10T10:43:03.284Z,5.55
2022-10-10T10:44:34.965Z,9.30
2022-10-10T10:46:01.593Z,4.90
2022-10-10T10:47:14.076Z,9.10
2022-10-10T10:48:47.072Z,9.13
2022-10-10T10:50:20.461Z,6.05
2022-10-10T10:51:43.520Z,9.02
2022-10-10T10:52:56.992Z,10.32
2022-10-10T10:54:19.916Z,5.50
2022-10-10T10:55:33.170Z,9.43
2022-10-10T10:56:50.022Z,10.23
2022-10-10T11:00:26.214Z,6.57
2022-10-10T11:05:15.991Z,8.52
2022-10-10T11:05:29.502Z,8.73
2022-10-10T11:06:42.121Z,8.60
2022-10-10T11:07:54.964Z,6.90
2022-10-10T11:09:49.039Z,13.70
2022-10-10T11:11:29.320Z,16.33
2022-10-10T11:12:42.588Z,6.20
2022-10-10T11:13:58.393Z,5.80
2022-10-10T11:15:54.095Z,6.70
2022-10-10T11:16:55.269Z,5.70
2022-10-10T11:18:16.738Z,10.52
2022-10-10T11:19:32.461Z,10.60
2022-10-10T11:20:54.474Z,12.10
2022-10-10T11:22:09.584Z,10.18
2022-10-10T11:23:17.045Z,18.45
2022-10-10T11:24:32.736Z,11.55
2022-10-10T11:25:47.101Z,8.07
2022-10-10T11:26:54.118Z,14.25
2022-10-10T11:28:02.701Z,12.32
2022-10-10T11:29:19.918Z,13.00
2022-10-10T11:30:26.254Z,15.73
2022-10-10T11:31:36.553Z,10.90
2022-10-10T11:32:54.382Z,12.07
2022-10-10T11:40:42.649Z,10.60
2022-10-10T11:42:05.905Z,16.15
2022-10-10T11:43:16.659Z,14.50
2022-10-10T11:44:40.885Z,18.85
2022-10-10T11:45:51.092Z,13.18
2022-10-10T11:47:24.089Z,13.85
2022-10-10T11:48:42.310Z,20.20
2022-10-10T11:50:00.630Z,28.25
2022-10-10T11:57:49.954Z,10.77
2022-10-10T11:58:58.624Z,16.15
2022-10-10T12:00:07.536Z,8.52
2022-10-10T12:01:22.498Z,26.58
2022-10-10T12:02:32.585Z,14.85
2022-10-10T12:09:04.802Z,16.00
2022-10-10T12:10:10.925Z,13.93
2022-10-10T12:11:24.681Z,13.57
2022-10-10T12:12:54.209Z,14.27
2022-10-10T12:13:59.087Z,16.67
2022-10-10T12:21:16.912Z,20.20
2022-10-10T12:22:24.276Z,15.75
2022-10-10T12:23:31.288Z,16.88
2022-10-10T12:24:38.676Z,15.65
2022-10-10T12:25:46.177Z,13.63
2022-10-10T12:26:53.284Z,7.53
2022-10-10T12:28:23.655Z,14.95
2022-10-10T12:29:43.939Z,19.55
2022-10-10T12:30:57.095Z,16.45
2022-10-10T12:32:27.494Z,19.73
2022-10-10T12:33:28.838Z,10.82
2022-10-10T12:34:48.636Z,13.30
2022-10-10T12:35:50.082Z,14.18
2022-10-10T12:37:10.749Z,25.50
2022-10-10T12:38:16.481Z,18.13
2022-10-10T12:39:17.954Z,24.45
2022-10-10T12:40:21.619Z,24.13
2022-10-10T12:41:47.244Z,12.43
2022-10-10T12:42:49.066Z,15.88
2022-10-10T12:43:56.254Z,14.23
2022-10-10T12:44:57.817Z,13.90
2022-10-10T12:57:46.768Z,10.40
2022-10-10T12:58:49.660Z,15.90
2022-10-10T12:59:51.491Z,15.45
2022-10-10T13:00:54.544Z,15.63
2022-10-10T13:02:02.357Z,15.95
2022-10-10T13:03:12.037Z,9.63
2022-10-10T13:04:17.938Z,14.82
2022-10-10T13:05:25.655Z,18.58
2022-10-10T13:06:43.383Z,20.80
2022-10-10T13:07:51.040Z,12.80
2022-10-10T13:08:54.775Z,36.77
2022-10-10T13:10:06.407Z,18.17
2022-10-10T13:11:13.432Z,26.40
2022-10-10T13:12:20.602Z,10.00
2022-10-10T13:13:22.226Z,7.77
2022-10-10T13:14:25.821Z,14.65
2022-10-10T13:15:28.665Z,27.08
2022-10-10T13:16:33.989Z,12.60
2022-10-10T13:17:41.302Z,13.95
2022-10-10T13:18:49.901Z,7.75
2022-10-10T13:19:52.648Z,12.73
2022-10-10T13:20:55.973Z,20.83
2022-10-10T13:21:57.413Z,11.20
2022-10-10T13:23:02.457Z,23.60
2022-10-10T13:24:06.124Z,15.85
2022-10-10T13:25:11.362Z,14.18
2022-10-10T13:32:59.781Z,14.07
2022-10-10T13:34:05.076Z,25.42
2022-10-10T13:35:14.463Z,14.65
2022-10-10T13:36:21.240Z,14.68
2022-10-10T13:37:23.135Z,20.70
2022-10-10T13:38:26.009Z,20.90
2022-10-10T13:39:29.797Z,19.85
2022-10-10T13:40:31.349Z,20.70
2022-10-10T13:41:32.889Z,13.38
2022-10-10T13:42:37.128Z,13.93
2022-10-10T13:43:40.495Z,17.80
2022-10-10T13:50:05.895Z,21.42
2022-10-10T13:51:10.659Z,10.38
2022-10-10T13:52:23.692Z,17.92
2022-10-10T13:53:31.497Z,17.77
2022-10-10T13:54:38.303Z,7.30
2022-10-10T13:55:40.160Z,16.02
2022-10-10T13:56:41.845Z,16.38
2022-10-10T13:57:43.308Z,37.33
2022-10-10T13:58:53.687Z,15.38
2022-10-10T14:00:09.585Z,17.38
2022-10-10T14:01:29.487Z,24.92
2022-10-10T14:02:34.003Z,15.35
2022-10-10T14:03:35.661Z,26.23
2022-10-10T14:04:44.151Z,23.90
2022-10-10T14:05:46.645Z,18.45
2022-10-10T14:06:59.645Z,12.25
2022-10-10T14:08:01.055Z,20.23
2022-10-10T14:09:27.595Z,34.00
2022-10-10T14:10:35.837Z,25.95
2022-10-10T14:11:40.183Z,14.45
2022-10-10T14:12:54.442Z,19.88
2022-10-10T14:14:05.575Z,12.43
2022-10-10T14:15:29.799Z,14.23
2022-10-10T14:16:31.298Z,23.85
2022-10-10T14:17:32.636Z,17.15
2022-10-10T14:18:33.978Z,20.25
2022-10-10T14:19:35.341Z,18.73
2022-10-10T14:20:36.665Z,18.00
2022-10-10T14:21:38.105Z,16.90
2022-10-10T14:22:39.429Z,22.10
2022-10-10T14:23:40.854Z,16.80
2022-10-10T14:24:42.225Z,18.45
2022-10-10T14:25:46.656Z,12.32
2022-10-10T14:32:06.598Z,12.77
2022-10-10T14:33:16.484Z,29.55
2022-10-10T14:34:18.173Z,26.27
2022-10-10T14:35:19.582Z,16.77
2022-10-10T14:36:21.264Z,11.27
2022-10-10T14:37:26.703Z,14.60
2022-10-10T14:38:28.170Z,21.65
2022-10-10T14:39:33.348Z,15.70
2022-10-10T14:40:34.970Z,14.10
2022-10-10T14:41:36.293Z,20.40
2022-10-10T14:42:37.661Z,31.30
2022-10-10T14:43:43.439Z,19.60
2022-10-10T14:44:47.438Z,13.35
2022-10-10T14:45:50.394Z,25.50
2022-10-10T14:46:51.804Z,18.05
2022-10-10T14:47:53.243Z,20.42
2022-10-10T14:48:54.656Z,21.05
2022-10-10T14:49:57.434Z,21.52
2022-10-10T14:50:58.853Z,13.60
2022-10-10T14:52:01.414Z,26.65
2022-10-10T14:53:03.841Z,19.08
2022-10-10T14:54:09.838Z,14.25
2022-10-10T15:02:02.762Z,15.85
2022-10-10T15:03:04.324Z,15.98
2022-10-10T15:04:05.725Z,18.35
2022-10-10T15:05:07.490Z,14.27
2022-10-10T15:06:11.387Z,21.38
2022-10-10T15:07:14.416Z,18.35
2022-10-10T15:08:21.646Z,26.70
2022-10-10T15:09:40.519Z,22.45
2022-10-10T15:10:44.215Z,16.35
2022-10-10T15:11:45.570Z,20.63
2022-10-10T15:12:47.059Z,16.42
2022-10-10T15:13:48.436Z,17.65
2022-10-10T15:14:49.920Z,20.65
2022-10-10T15:15:51.241Z,15.88
2022-10-10T15:16:52.885Z,24.70
2022-10-10T15:17:54.492Z,15.48
2022-10-10T15:18:56.151Z,29.27
2022-10-10T15:19:57.485Z,17.92
2022-10-10T15:20:59.214Z,20.67
2022-10-10T15:22:00.783Z,24.70
2022-10-10T15:23:07.057Z,29.80
2022-10-10T15:24:11.489Z,19.33
2022-10-10T15:25:12.932Z,20.98
2022-10-10T15:26:14.279Z,23.13
2022-10-10T15:27:15.728Z,14.80
2022-10-10T15:28:17.176Z,18.27
2022-10-10T15:29:18.797Z,20.25
2022-10-10T15:30:20.299Z,19.58
2022-10-10T15:43:07.798Z,22.45
2022-10-10T15:44:18.884Z,14.88
2022-10-10T15:45:37.293Z,21.15
2022-10-10T15:46:43.180Z,21.85
2022-10-10T15:47:46.666Z,16.27
2022-10-10T15:48:48.200Z,21.77
2022-10-10T15:49:49.758Z,12.07
2022-10-10T15:50:51.568Z,22.85
2022-10-10T15:51:53.126Z,18.38
2022-10-10T15:52:54.549Z,15.63
2022-10-10T15:53:58.158Z,13.02
2022-10-10T15:54:59.609Z,17.08
2022-10-10T15:56:01.146Z,17.10
2022-10-10T15:57:02.722Z,20.05
2022-10-10T15:58:04.072Z,18.42
2022-10-10T15:59:05.832Z,21.23
2022-10-10T16:00:08.049Z,11.52
2022-10-10T16:01:18.108Z,27.10
2022-10-10T16:02:19.519Z,22.13
2022-10-10T16:03:20.881Z,24.25
2022-10-10T16:04:22.582Z,13.18
2022-10-10T16:05:27.730Z,17.25
2022-10-10T16:06:32.209Z,20.65
2022-10-10T16:13:04.461Z,26.20
2022-10-10T16:14:05.790Z,18.45
2022-10-10T16:15:07.760Z,11.20
2022-10-10T16:16:11.195Z,12.65
2022-10-10T16:17:12.543Z,21.27
2022-10-10T16:18:18.082Z,27.42
2022-10-10T16:19:19.633Z,16.27
2022-10-10T16:20:21.053Z,13.73
2022-10-10T16:21:24.371Z,23.67
2022-10-10T16:22:25.801Z,17.60
2022-10-10T16:23:30.745Z,13.90
2022-10-10T16:24:32.098Z,17.08
2022-10-10T16:25:33.431Z,23.92
2022-10-10T16:26:36.786Z,21.33
2022-10-10T16:27:38.340Z,17.15
2022-10-10T16:28:40.615Z,16.67
2022-10-10T16:29:42.228Z,20.13
2022-10-10T16:30:43.644Z,11.98
2022-10-10T16:37:05.682Z,19.58
2022-10-10T16:38:07.097Z,15.30
2022-10-10T16:39:08.554Z,18.20
2022-10-10T16:40:10.308Z,19.95
2022-10-10T16:41:29.151Z,17.83
2022-10-10T16:42:35.762Z,19.25
2022-10-10T16:43:38.449Z,25.52
2022-10-10T16:44:44.171Z,16.63
2022-10-10T16:45:46.076Z,11.05
2022-10-10T16:46:47.489Z,17.33
2022-10-10T16:47:48.940Z,15.70
2022-10-10T16:48:50.757Z,14.65
2022-10-10T16:49:52.219Z,16.73
2022-10-10T16:50:53.601Z,20.48
2022-10-10T16:51:54.968Z,16.55
2022-10-10T16:52:56.521Z,22.10
2022-10-10T16:54:01.800Z,11.15
2022-10-10T16:55:07.712Z,26.50
2022-10-10T16:56:13.943Z,31.65
2022-10-10T16:57:16.149Z,17.92
2022-10-10T16:58:18.857Z,20.55
2022-10-10T16:59:20.210Z,28.85
2022-10-10T17:00:21.785Z,11.10
2022-10-10T17:07:03.832Z,17.13
2022-10-10T17:08:05.341Z,26.35
2022-10-10T17:09:08.304Z,19.77
2022-10-10T17:10:10.459Z,16.10
2022-10-10T17:11:14.688Z,19.75
2022-10-10T17:12:16.206Z,26.15
2022-10-10T17:20:09.506Z,11.93
2022-10-10T17:21:13.793Z,18.10
2022-10-10T17:22:15.989Z,22.02
2022-10-10T17:23:17.410Z,23.95
2022-10-10T17:24:18.785Z,21.92
2022-10-10T17:25:23.140Z,18.83
2022-10-10T17:26:26.078Z,16.02
2022-10-10T17:27:27.498Z,20.10
2022-10-10T17:28:28.919Z,15.98
2022-10-10T17:29:30.686Z,16.98
2022-10-10T17:30:32.045Z,19.38
2022-10-10T17:37:05.171Z,10.45
2022-10-10T17:38:27.671Z,28.65
2022-10-10T17:39:28.374Z,11.60
